createdAt,value
2019-04-07T00:00:34.080Z,51.03
2019-04-07T00:03:05.206Z,54.10
2019-04-07T00:05:36.865Z,40.47
2019-04-07T00:08:08.465Z,50.57
2019-04-07T00:10:39.007Z,47.33
2019-04-07T00:13:10.051Z,45.27
2019-04-07T00:15:41.547Z,46.70
2019-04-07T00:18:12.173Z,47.00
2019-04-07T00:20:42.798Z,50.50
2019-04-07T00:23:13.377Z,55.73
2019-04-07T00:25:44.320Z,46.83
2019-04-07T00:28:14.973Z,50.63
2019-04-07T00:30:46.710Z,54.87
2019-04-07T00:33:17.269Z,49.33
2019-04-07T00:35:47.930Z,45.93
2019-04-07T00:38:19.455Z,52.43
2019-04-07T00:40:50.291Z,49.03
2019-04-07T00:43:21.057Z,51.33
2019-04-07T00:45:51.605Z,54.17
2019-04-07T00:48:22.193Z,52.80
2019-04-07T00:50:53.796Z,49.20
2019-04-07T00:53:24.323Z,45.33
2019-04-07T00:55:55.043Z,44.90
2019-04-07T00:58:25.552Z,43.30
2019-04-07T01:00:56.364Z,43.50
2019-04-07T01:03:26.921Z,48.70
2019-04-07T01:05:58.733Z,48.47
2019-04-07T01:08:29.619Z,48.50
2019-04-07T01:11:01.480Z,54.07
2019-04-07T01:13:33.622Z,53.87
2019-04-07T01:16:06.638Z,51.83
2019-04-07T01:18:37.990Z,48.23
2019-04-07T01:21:08.612Z,45.50
2019-04-07T01:23:39.613Z,47.10
2019-04-07T01:26:10.535Z,49.57
2019-04-07T01:28:41.754Z,49.53
2019-04-07T01:31:12.365Z,49.07
2019-04-07T01:33:43.127Z,51.83
2019-04-07T01:36:13.645Z,52.20
2019-04-07T01:38:44.478Z,54.50
2019-04-07T01:41:40.732Z,57.23
2019-04-07T01:44:16.349Z,52.77
2019-04-07T01:47:17.767Z,60.23
2019-04-07T01:50:02.274Z,55.17
2019-04-07T01:52:44.953Z,62.63
2019-04-07T01:55:23.584Z,60.63
2019-04-07T01:58:12.073Z,64.33
2019-04-07T02:00:52.035Z,69.53
2019-04-07T02:04:01.742Z,67.80
2019-04-07T02:06:51.795Z,68.90
2019-04-07T02:09:37.027Z,66.53
2019-04-07T02:12:18.990Z,65.80
2019-04-07T02:15:15.030Z,69.10
2019-04-07T02:18:03.579Z,66.37
2019-04-07T02:21:04.336Z,69.87
2019-04-07T02:23:57.510Z,72.90
2019-04-07T02:26:48.597Z,71.43
2019-04-07T02:29:34.594Z,85.47
2019-04-07T02:32:13.124Z,84.47
2019-04-07T02:34:57.932Z,91.67
2019-04-07T02:37:38.921Z,93.50
2019-04-07T02:40:15.433Z,94.83
2019-04-07T02:42:55.884Z,85.03
2019-04-07T02:45:45.122Z,88.83
2019-04-07T02:48:44.644Z,89.97
2019-04-07T02:51:33.745Z,92.57
2019-04-07T02:54:29.323Z,102.57
2019-04-07T02:57:05.469Z,109.33
2019-04-07T03:00:04.565Z,113.93
2019-04-07T03:02:45.550Z,129.03
2019-04-07T03:05:38.847Z,142.23
2019-04-07T03:08:44.071Z,171.50
2019-04-07T03:11:27.715Z,192.00
2019-04-07T03:14:17.811Z,165.53
2019-04-07T03:17:06.692Z,209.80
2019-04-07T03:19:52.155Z,184.60
2019-04-07T03:22:41.905Z,184.93
2019-04-07T03:25:49.616Z,172.80
2019-04-07T03:28:34.616Z,171.00
2019-04-07T03:31:27.865Z,150.93
2019-04-07T03:34:23.326Z,129.53
2019-04-07T03:37:30.285Z,121.53
2019-04-07T03:39:54.199Z,125.53
2019-04-07T03:42:46.890Z,126.70
2019-04-07T03:45:32.653Z,126.13
2019-04-07T03:48:15.735Z,134.03
2019-04-07T03:51:04.122Z,136.53
2019-04-07T03:53:52.819Z,145.97
2019-04-07T03:56:45.502Z,147.47
2019-04-07T03:59:47.338Z,147.20
2019-04-07T04:02:35.110Z,139.60
2019-04-07T04:05:19.726Z,145.10
2019-04-07T04:08:09.516Z,148.53
2019-04-07T04:10:55.633Z,142.57
2019-04-07T04:13:36.002Z,153.07
2019-04-07T04:16:18.593Z,149.97
2019-04-07T04:18:50.533Z,157.40
2019-04-07T04:21:22.038Z,156.93
2019-04-07T04:23:53.044Z,157.97
2019-04-07T04:26:23.861Z,166.60
2019-04-07T04:28:55.204Z,174.93
2019-04-07T04:31:25.982Z,179.30
2019-04-07T04:33:56.527Z,178.90
2019-04-07T04:36:27.341Z,176.27
2019-04-07T04:38:58.001Z,161.23
2019-04-07T04:41:29.358Z,140.27
2019-04-07T04:44:00.495Z,133.20
2019-04-07T04:46:31.175Z,115.33
2019-04-07T04:49:04.235Z,104.20
2019-04-07T04:51:39.272Z,91.33
2019-04-07T04:54:08.329Z,88.47
2019-04-07T04:56:39.448Z,127.63
2019-04-07T04:59:10.141Z,329.00
2019-04-07T05:01:40.719Z,309.93
2019-04-07T05:04:11.521Z,329.97
2019-04-07T05:06:42.333Z,354.07
2019-04-07T05:09:13.331Z,422.50
2019-04-07T05:11:46.132Z,201.47
2019-04-07T05:14:18.958Z,366.57
2019-04-07T05:16:50.354Z,278.57
2019-04-07T05:19:21.058Z,369.47
2019-04-07T05:21:51.636Z,291.67
2019-04-07T05:24:23.156Z,227.70
2019-04-07T05:26:54.234Z,237.33
2019-04-07T05:29:24.810Z,186.63
2019-04-07T05:31:55.725Z,160.97
2019-04-07T05:34:27.916Z,120.87
2019-04-07T05:36:58.759Z,105.30
2019-04-07T05:39:30.913Z,118.10
2019-04-07T05:42:03.495Z,147.17
2019-04-07T05:44:34.448Z,258.77
2019-04-07T05:47:05.058Z,165.53
2019-04-07T05:49:36.646Z,164.33
2019-04-07T05:52:07.240Z,153.07
2019-04-07T05:54:37.909Z,221.67
2019-04-07T05:57:09.867Z,116.50
2019-04-07T05:59:42.300Z,83.70
2019-04-07T06:02:13.206Z,85.23
2019-04-07T06:04:44.387Z,85.87
2019-04-07T06:07:17.857Z,73.90
2019-04-07T06:09:51.194Z,72.53
2019-04-07T06:12:22.642Z,64.87
2019-04-07T06:14:53.449Z,73.57
2019-04-07T06:17:26.318Z,67.47
2019-04-07T06:19:58.913Z,61.57
2019-04-07T06:22:33.841Z,58.23
2019-04-07T06:25:05.709Z,63.57
2019-04-07T06:27:37.176Z,64.73
2019-04-07T06:30:09.790Z,61.77
2019-04-07T06:32:40.810Z,63.10
2019-04-07T06:35:13.966Z,64.87
2019-04-07T06:37:45.452Z,65.13
2019-04-07T06:40:20.333Z,62.77
2019-04-07T06:42:48.789Z,57.67
2019-04-07T06:45:23.487Z,60.87
2019-04-07T06:47:57.114Z,59.93
2019-04-07T06:50:50.786Z,60.50
2019-04-07T06:53:38.038Z,58.00
2019-04-07T06:56:32.191Z,64.30
2019-04-07T06:59:23.098Z,56.77
2019-04-07T07:02:13.261Z,66.67
2019-04-07T07:05:00.955Z,65.37
2019-04-07T07:07:48.159Z,70.57
2019-04-07T07:10:39.058Z,72.47
2019-04-07T07:13:28.745Z,69.27
2019-04-07T07:16:15.606Z,71.47
2019-04-07T07:18:54.796Z,78.07
2019-04-07T07:21:36.484Z,67.07
2019-04-07T07:24:05.981Z,76.03
2019-04-07T07:26:36.690Z,72.43
2019-04-07T07:29:07.218Z,74.80
2019-04-07T07:31:37.970Z,70.73
2019-04-07T07:34:10.166Z,71.80
2019-04-07T07:36:40.839Z,78.13
2019-04-07T07:39:12.913Z,74.00
2019-04-07T07:41:43.554Z,74.33
2019-04-07T07:44:14.416Z,69.50
2019-04-07T07:46:45.150Z,71.30
2019-04-07T07:49:15.805Z,72.97
2019-04-07T07:51:48.547Z,76.97
2019-04-07T07:54:18.743Z,79.80
2019-04-07T07:56:51.435Z,79.87
2019-04-07T07:59:22.540Z,78.00
2019-04-07T08:01:53.460Z,80.77
2019-04-07T08:04:26.478Z,82.57
2019-04-07T08:06:57.939Z,85.13
2019-04-07T08:09:28.463Z,79.10
2019-04-07T08:11:58.917Z,114.50
2019-04-07T08:14:29.358Z,91.67
2019-04-07T08:17:02.715Z,89.33
2019-04-07T08:19:33.106Z,84.93
2019-04-07T08:22:03.874Z,121.80
2019-04-07T08:24:35.128Z,135.97
2019-04-07T08:27:06.371Z,154.20
2019-04-07T08:29:38.771Z,151.60
2019-04-07T08:32:09.489Z,151.10
2019-04-07T08:34:42.591Z,151.30
2019-04-07T08:37:15.171Z,146.63
2019-04-07T08:39:46.533Z,134.47
2019-04-07T08:42:18.715Z,131.67
2019-04-07T08:44:50.859Z,129.00
2019-04-07T08:47:22.607Z,113.13
2019-04-07T08:49:56.909Z,93.20
2019-04-07T08:52:26.039Z,93.00
2019-04-07T08:54:56.691Z,84.10
2019-04-07T08:57:30.119Z,70.30
2019-04-07T08:59:59.651Z,74.10
2019-04-07T09:02:32.155Z,69.63
2019-04-07T09:05:03.006Z,70.13
2019-04-07T09:07:34.943Z,73.00
2019-04-07T09:10:06.178Z,56.63
2019-04-07T09:12:36.864Z,61.30
2019-04-07T09:15:11.528Z,59.50
2019-04-07T09:17:47.188Z,53.43
2019-04-07T09:20:31.744Z,55.00
2019-04-07T09:23:34.359Z,52.50
2019-04-07T09:26:15.129Z,44.90
2019-04-07T09:28:57.463Z,49.30
2019-04-07T09:31:50.973Z,49.37
2019-04-07T09:34:33.497Z,49.13
2019-04-07T09:37:28.857Z,49.87
2019-04-07T09:40:34.041Z,47.47
2019-04-07T09:43:30.286Z,52.03
2019-04-07T09:46:11.909Z,52.07
2019-04-07T09:49:16.913Z,57.13
2019-04-07T09:52:02.524Z,56.50
2019-04-07T09:54:41.299Z,49.63
2019-04-07T09:57:25.993Z,52.20
2019-04-07T10:00:23.834Z,52.63
2019-04-07T10:03:04.955Z,48.27
2019-04-07T10:05:58.889Z,46.37
2019-04-07T10:08:54.535Z,44.03
2019-04-07T10:11:41.789Z,43.27
2019-04-07T10:14:30.727Z,39.50
2019-04-07T10:17:25.489Z,43.67
2019-04-07T10:20:15.850Z,40.50
2019-04-07T10:23:05.512Z,34.00
2019-04-07T10:25:43.467Z,34.17
2019-04-07T10:28:32.333Z,37.07
2019-04-07T10:31:20.980Z,42.90
2019-04-07T10:34:01.854Z,36.47
2019-04-07T10:36:54.603Z,42.03
2019-04-07T10:39:43.539Z,40.53
2019-04-07T10:42:27.186Z,39.37
2019-04-07T10:45:26.310Z,39.73
2019-04-07T10:48:24.479Z,39.83
2019-04-07T10:51:02.685Z,40.13
2019-04-07T10:53:56.136Z,40.53
2019-04-07T10:56:46.100Z,42.00
2019-04-07T10:59:36.906Z,39.97
2019-04-07T11:02:26.016Z,38.77
2019-04-07T11:05:15.641Z,38.67
2019-04-07T11:08:18.246Z,36.60
2019-04-07T11:11:13.556Z,37.10
2019-04-07T11:14:02.059Z,35.87
2019-04-07T11:16:55.194Z,37.33
2019-04-07T11:19:44.856Z,38.47
2019-04-07T11:22:36.052Z,35.77
2019-04-07T11:25:26.214Z,37.57
2019-04-07T11:28:31.800Z,34.30
2019-04-07T11:31:19.581Z,40.33
2019-04-07T11:34:11.073Z,40.70
2019-04-07T11:36:50.293Z,37.83
2019-04-07T11:39:38.764Z,44.93
2019-04-07T11:42:19.887Z,39.33
2019-04-07T11:45:00.112Z,35.07
2019-04-07T11:47:49.298Z,34.17
2019-04-07T11:50:34.840Z,37.13
2019-04-07T11:53:24.280Z,39.27
2019-04-07T11:56:13.202Z,38.30
2019-04-07T11:58:51.399Z,42.63
2019-04-07T12:01:50.953Z,39.40
2019-04-07T12:04:55.570Z,39.70
2019-04-07T12:07:42.747Z,35.27
2019-04-07T12:10:40.263Z,34.73
2019-04-07T12:13:35.701Z,38.27
2019-04-07T12:16:28.654Z,39.13
2019-04-07T12:19:32.121Z,34.43
2019-04-07T12:22:42.464Z,35.50
2019-04-07T12:25:47.174Z,32.60
2019-04-07T12:28:36.645Z,30.30
2019-04-07T12:31:16.342Z,33.60
2019-04-07T12:34:02.891Z,29.57
2019-04-07T12:36:53.004Z,31.87
2019-04-07T12:39:47.273Z,33.60
2019-04-07T12:42:42.936Z,32.77
2019-04-07T12:45:48.158Z,32.80
2019-04-07T12:48:50.073Z,36.30
2019-04-07T12:51:46.088Z,34.43
2019-04-07T12:54:47.807Z,29.10
2019-04-07T12:57:40.361Z,30.00
2019-04-07T13:00:27.633Z,32.07
2019-04-07T13:03:22.961Z,30.17
2019-04-07T13:06:10.961Z,32.37
2019-04-07T13:08:51.922Z,32.37
2019-04-07T13:11:37.285Z,32.17
2019-04-07T13:14:24.585Z,31.13
2019-04-07T13:17:13.785Z,32.43
2019-04-07T13:20:11.856Z,31.43
2019-04-07T13:22:55.192Z,31.67
2019-04-07T13:25:55.674Z,31.67
2019-04-07T13:28:45.148Z,29.97
2019-04-07T13:31:24.538Z,27.97
2019-04-07T13:34:07.551Z,29.77
2019-04-07T13:36:55.518Z,26.80
2019-04-07T13:39:45.214Z,28.90
2019-04-07T13:42:26.701Z,28.20
2019-04-07T13:45:16.460Z,27.60
2019-04-07T13:48:05.735Z,27.67
2019-04-07T13:51:00.963Z,32.20
2019-04-07T13:54:05.795Z,30.87
2019-04-07T13:57:04.493Z,30.73
2019-04-07T13:59:56.526Z,27.83
2019-04-07T14:02:34.043Z,30.97
2019-04-07T14:05:25.886Z,30.53
2019-04-07T14:08:22.333Z,33.03
2019-04-07T14:11:24.932Z,29.50
2019-04-07T14:14:07.946Z,31.83
2019-04-07T14:16:57.490Z,28.60
2019-04-07T14:19:46.606Z,28.93
2019-04-07T14:22:36.377Z,29.27
2019-04-07T14:25:29.843Z,27.67
2019-04-07T14:28:19.048Z,32.23
2019-04-07T14:31:17.937Z,36.20
2019-04-07T14:34:11.828Z,29.40
2019-04-07T14:37:16.364Z,29.23
2019-04-07T14:40:05.174Z,30.60
2019-04-07T14:42:55.730Z,28.87
2019-04-07T14:45:50.404Z,30.07
2019-04-07T14:48:41.044Z,25.80
2019-04-07T14:51:23.080Z,31.13
2019-04-07T14:54:16.361Z,29.17
2019-04-07T14:57:12.514Z,29.93
2019-04-07T15:00:06.067Z,32.53
2019-04-07T15:02:37.208Z,29.00
2019-04-07T15:05:15.940Z,31.93
2019-04-07T15:08:05.360Z,30.27
2019-04-07T15:10:48.400Z,29.17
2019-04-07T15:13:26.194Z,31.17
2019-04-07T15:15:53.661Z,28.67
2019-04-07T15:18:24.170Z,26.03
2019-04-07T15:20:54.704Z,25.03
2019-04-07T15:23:25.196Z,28.33
2019-04-07T15:25:55.758Z,28.17
2019-04-07T15:28:29.722Z,29.57
2019-04-07T15:30:58.932Z,30.10
2019-04-07T15:33:33.062Z,30.27
2019-04-07T15:36:02.785Z,29.23
2019-04-07T15:38:33.353Z,31.10
2019-04-07T15:41:07.600Z,26.13
2019-04-07T15:43:36.195Z,20.47
2019-04-07T15:46:07.455Z,23.30
2019-04-07T15:48:39.047Z,26.53
2019-04-07T15:51:09.605Z,29.73
2019-04-07T15:53:40.376Z,35.60
2019-04-07T15:56:15.065Z,27.70
2019-04-07T15:58:43.328Z,22.90
2019-04-07T16:01:14.020Z,21.07
2019-04-07T16:03:48.675Z,22.77
2019-04-07T16:06:18.179Z,22.47
2019-04-07T16:08:49.681Z,23.93
2019-04-07T16:11:24.182Z,25.30
2019-04-07T16:13:52.502Z,33.83
2019-04-07T16:16:26.854Z,34.87
2019-04-07T16:18:55.389Z,36.37
2019-04-07T16:21:27.840Z,34.83
2019-04-07T16:23:59.155Z,32.17
2019-04-07T16:26:32.480Z,33.50
2019-04-07T16:29:03.329Z,32.80
2019-04-07T16:31:34.418Z,35.03
2019-04-07T16:34:08.629Z,41.10
2019-04-07T16:36:38.484Z,33.57
2019-04-07T16:39:09.803Z,34.73
2019-04-07T16:41:44.199Z,40.10
2019-04-07T16:44:12.764Z,39.07
2019-04-07T16:46:44.631Z,40.33
2019-04-07T16:49:17.380Z,37.47
2019-04-07T16:51:49.394Z,38.60
2019-04-07T16:54:20.148Z,38.47
2019-04-07T16:56:54.886Z,35.67
2019-04-07T16:59:22.900Z,42.13
2019-04-07T17:01:53.638Z,40.20
2019-04-07T17:04:28.138Z,39.10
2019-04-07T17:07:05.012Z,38.40
2019-04-07T17:09:35.417Z,44.37
2019-04-07T17:12:09.368Z,43.30
2019-04-07T17:14:39.531Z,44.10
2019-04-07T17:17:10.129Z,48.17
2019-04-07T17:19:41.552Z,45.63
2019-04-07T17:22:14.916Z,42.93
2019-04-07T17:24:45.286Z,47.77
2019-04-07T17:27:17.227Z,56.67
2019-04-07T17:29:53.124Z,56.10
2019-04-07T17:32:22.027Z,58.80
2019-04-07T17:34:53.017Z,62.73
2019-04-07T17:37:28.032Z,60.50
2019-04-07T17:40:28.869Z,66.17
2019-04-07T17:43:25.677Z,61.27
2019-04-07T17:45:58.050Z,60.67
2019-04-07T17:48:57.649Z,58.83
2019-04-07T17:51:49.973Z,59.27
2019-04-07T17:54:34.433Z,65.37
2019-04-07T17:57:18.456Z,71.87
2019-04-07T17:59:58.264Z,75.07
2019-04-07T18:02:47.493Z,69.27
2019-04-07T18:05:34.512Z,77.27
2019-04-07T18:08:16.561Z,73.17
2019-04-07T18:11:10.806Z,72.87
2019-04-07T18:13:58.261Z,75.97
2019-04-07T18:17:04.461Z,72.37
2019-04-07T18:19:59.498Z,71.63
2019-04-07T18:22:51.680Z,78.67
2019-04-07T18:25:47.753Z,73.60
2019-04-07T18:28:41.890Z,73.47
2019-04-07T18:31:28.984Z,81.00
2019-04-07T18:34:25.093Z,89.73
2019-04-07T18:37:13.037Z,100.00
2019-04-07T18:40:14.710Z,106.77
2019-04-07T18:42:55.609Z,108.17
2019-04-07T18:45:54.805Z,117.23
2019-04-07T18:48:51.396Z,123.50
2019-04-07T18:51:58.068Z,125.30
2019-04-07T18:55:08.979Z,121.63
2019-04-07T18:57:54.228Z,100.10
2019-04-07T19:00:42.383Z,104.37
2019-04-07T19:03:51.922Z,97.20
2019-04-07T19:06:49.676Z,86.80
2019-04-07T19:09:42.600Z,103.07
2019-04-07T19:12:28.910Z,99.87
2019-04-07T19:15:14.476Z,103.93
2019-04-07T19:18:06.908Z,105.47
2019-04-07T19:20:55.678Z,115.13
2019-04-07T19:23:43.908Z,117.27
2019-04-07T19:26:53.062Z,122.47
2019-04-07T19:29:41.862Z,137.57
2019-04-07T19:32:29.193Z,167.33
2019-04-07T19:35:28.243Z,157.63
2019-04-07T19:38:24.040Z,147.07
2019-04-07T19:41:19.950Z,141.43
2019-04-07T19:44:01.942Z,140.77
2019-04-07T19:46:46.010Z,132.20
2019-04-07T19:49:45.333Z,130.43
2019-04-07T19:52:36.254Z,121.47
2019-04-07T19:55:34.567Z,122.73
2019-04-07T19:58:37.311Z,127.70
2019-04-07T20:01:29.014Z,114.77
2019-04-07T20:04:30.653Z,123.27
2019-04-07T20:07:15.903Z,128.50
2019-04-07T20:09:58.802Z,129.97
2019-04-07T20:12:48.439Z,133.03
2019-04-07T20:15:40.197Z,121.87
2019-04-07T20:18:31.612Z,133.80
2019-04-07T20:21:18.541Z,147.30
2019-04-07T20:24:08.861Z,140.37
2019-04-07T20:26:55.855Z,139.10
2019-04-07T20:29:58.474Z,157.50
2019-04-07T20:32:51.292Z,168.30
2019-04-07T20:35:34.950Z,242.43
2019-04-07T20:38:25.595Z,207.53
2019-04-07T20:41:21.820Z,177.47
2019-04-07T20:43:59.045Z,157.33
2019-04-07T20:46:47.269Z,155.93
2019-04-07T20:49:41.220Z,151.53
2019-04-07T20:52:50.189Z,134.50
2019-04-07T20:55:42.815Z,131.13
2019-04-07T20:58:25.758Z,121.47
2019-04-07T21:01:18.797Z,100.23
2019-04-07T21:04:17.913Z,111.63
2019-04-07T21:07:25.424Z,114.47
2019-04-07T21:10:12.471Z,111.07
2019-04-07T21:13:04.034Z,102.03
2019-04-07T21:15:59.509Z,93.70
2019-04-07T21:18:45.175Z,97.43
2019-04-07T21:21:23.480Z,101.70
2019-04-07T21:24:03.723Z,96.00
2019-04-07T21:26:45.909Z,93.63
2019-04-07T21:29:38.603Z,96.63
2019-04-07T21:32:18.833Z,95.87
2019-04-07T21:35:01.409Z,98.47
2019-04-07T21:38:06.063Z,94.93
2019-04-07T21:41:01.959Z,91.93
2019-04-07T21:43:56.827Z,108.93
2019-04-07T21:46:57.942Z,110.37
2019-04-07T21:49:37.172Z,107.40
2019-04-07T21:52:26.651Z,101.70
2019-04-07T21:55:19.076Z,105.73
2019-04-07T21:58:03.414Z,101.40
2019-04-07T22:00:53.061Z,101.37
2019-04-07T22:03:39.502Z,100.47
2019-04-07T22:06:31.111Z,102.73
2019-04-07T22:09:14.763Z,96.50
2019-04-07T22:11:44.557Z,99.53
2019-04-07T22:14:15.249Z,103.60
2019-04-07T22:16:47.094Z,96.93
2019-04-07T22:19:17.711Z,99.73
2019-04-07T22:21:48.247Z,99.83
2019-04-07T22:24:18.890Z,95.30
2019-04-07T22:26:50.260Z,87.77
2019-04-07T22:29:21.067Z,89.90
2019-04-07T22:31:54.014Z,94.20
2019-04-07T22:34:24.889Z,86.13
2019-04-07T22:36:56.042Z,90.43
2019-04-07T22:39:28.833Z,91.50
2019-04-07T22:41:58.687Z,93.33
2019-04-07T22:44:31.429Z,92.67
2019-04-07T22:47:02.793Z,91.80
2019-04-07T22:49:33.606Z,90.97
2019-04-07T22:52:04.103Z,102.27
2019-04-07T22:54:36.858Z,107.50
2019-04-07T22:57:12.709Z,115.40
2019-04-07T22:59:40.675Z,112.13
2019-04-07T23:02:12.162Z,118.20
2019-04-07T23:04:44.763Z,119.40
2019-04-07T23:07:15.922Z,126.43
2019-04-07T23:09:49.635Z,113.07
2019-04-07T23:12:20.986Z,116.80
2019-04-07T23:14:51.548Z,116.37
2019-04-07T23:17:22.054Z,119.00
2019-04-07T23:19:52.573Z,117.20
2019-04-07T23:22:23.160Z,118.57
2019-04-07T23:24:53.666Z,115.80
2019-04-07T23:27:24.270Z,121.77
2019-04-07T23:29:54.945Z,118.10
2019-04-07T23:32:25.666Z,120.53
2019-04-07T23:34:56.161Z,117.00
2019-04-07T23:37:26.760Z,116.93
2019-04-07T23:39:58.032Z,118.43
2019-04-07T23:42:28.807Z,115.83
2019-04-07T23:44:59.306Z,116.20
2019-04-07T23:47:29.799Z,127.93
2019-04-07T23:50:00.750Z,127.80
2019-04-07T23:52:31.609Z,118.47
2019-04-07T23:55:02.432Z,110.03
2019-04-07T23:57:33.313Z,116.20
